sensor_id;sensor_type;location;lat;lon;timestamp;temperature;humidity
43697;DHT22;29301;47.620;19.560;2022-12-29T00:01:52;0.10;95.00
43697;DHT22;29301;47.620;19.560;2022-12-29T00:04:18;0.10;95.10
43697;DHT22;29301;47.620;19.560;2022-12-29T00:06:44;0.10;95.00
43697;DHT22;29301;47.620;19.560;2022-12-29T00:09:14;0.10;94.60
43697;DHT22;29301;47.620;19.560;2022-12-29T00:11:40;0.00;94.60
43697;DHT22;29301;47.620;19.560;2022-12-29T00:14:07;0.00;94.40
43697;DHT22;29301;47.620;19.560;2022-12-29T00:16:52;0.00;94.40
43697;DHT22;29301;47.620;19.560;2022-12-29T00:19:18;-0.10;94.30
43697;DHT22;29301;47.620;19.560;2022-12-29T00:22:02;-0.20;94.60
43697;DHT22;29301;47.620;19.560;2022-12-29T00:24:46;-0.30;94.30
43697;DHT22;29301;47.620;19.560;2022-12-29T00:27:31;-0.40;94.50
43697;DHT22;29301;47.620;19.560;2022-12-29T00:30:21;-0.30;94.70
43697;DHT22;29301;47.620;19.560;2022-12-29T00:33:17;-0.30;94.70
43697;DHT22;29301;47.620;19.560;2022-12-29T00:38:31;-0.30;94.80
43697;DHT22;29301;47.620;19.560;2022-12-29T00:41:16;-0.40;94.70
43697;DHT22;29301;47.620;19.560;2022-12-29T00:44:00;-0.50;94.70
43697;DHT22;29301;47.620;19.560;2022-12-29T00:46:37;-0.70;95.50
43697;DHT22;29301;47.620;19.560;2022-12-29T00:49:05;-0.60;96.10
43697;DHT22;29301;47.620;19.560;2022-12-29T00:51:49;-0.50;96.20
43697;DHT22;29301;47.620;19.560;2022-12-29T00:54:16;-0.40;96.20
43697;DHT22;29301;47.620;19.560;2022-12-29T00:56:42;-0.30;96.20
43697;DHT22;29301;47.620;19.560;2022-12-29T00:59:09;-0.30;96.00
43697;DHT22;29301;47.620;19.560;2022-12-29T01:01:36;-0.30;95.80
43697;DHT22;29301;47.620;19.560;2022-12-29T01:04:02;-0.30;95.80
43697;DHT22;29301;47.620;19.560;2022-12-29T01:06:28;-0.20;96.10
43697;DHT22;29301;47.620;19.560;2022-12-29T01:08:54;-0.20;95.70
43697;DHT22;29301;47.620;19.560;2022-12-29T01:11:39;-0.10;95.60
43697;DHT22;29301;47.620;19.560;2022-12-29T01:14:05;-0.10;95.30
43697;DHT22;29301;47.620;19.560;2022-12-29T01:16:31;-0.20;95.30
43697;DHT22;29301;47.620;19.560;2022-12-29T01:18:57;-0.10;95.50
43697;DHT22;29301;47.620;19.560;2022-12-29T01:21:23;-0.10;95.40
43697;DHT22;29301;47.620;19.560;2022-12-29T01:23:49;-0.10;94.90
43697;DHT22;29301;47.620;19.560;2022-12-29T01:26:16;-0.20;94.30
43697;DHT22;29301;47.620;19.560;2022-12-29T01:28:42;-0.20;94.20
43697;DHT22;29301;47.620;19.560;2022-12-29T01:31:09;-0.20;94.10
43697;DHT22;29301;47.620;19.560;2022-12-29T01:33:34;-0.20;94.10
43697;DHT22;29301;47.620;19.560;2022-12-29T01:36:01;-0.20;93.90
43697;DHT22;29301;47.620;19.560;2022-12-29T01:38:27;-0.30;93.80
43697;DHT22;29301;47.620;19.560;2022-12-29T01:40:52;-0.30;94.00
43697;DHT22;29301;47.620;19.560;2022-12-29T01:43:18;-0.40;94.10
43697;DHT22;29301;47.620;19.560;2022-12-29T01:45:48;-0.40;94.30
43697;DHT22;29301;47.620;19.560;2022-12-29T01:48:16;-0.40;94.60
43697;DHT22;29301;47.620;19.560;2022-12-29T01:50:48;-0.40;94.90
43697;DHT22;29301;47.620;19.560;2022-12-29T01:53:26;-0.50;94.90
43697;DHT22;29301;47.620;19.560;2022-12-29T01:55:57;-0.50;95.10
43697;DHT22;29301;47.620;19.560;2022-12-29T01:58:28;-0.50;95.10
43697;DHT22;29301;47.620;19.560;2022-12-29T02:00:54;-0.50;95.20
43697;DHT22;29301;47.620;19.560;2022-12-29T02:03:21;-0.40;95.30
43697;DHT22;29301;47.620;19.560;2022-12-29T02:05:57;-0.40;95.20
43697;DHT22;29301;47.620;19.560;2022-12-29T02:08:27;-0.70;94.10
43697;DHT22;29301;47.620;19.560;2022-12-29T02:10:54;-0.90;94.70
43697;DHT22;29301;47.620;19.560;2022-12-29T02:13:20;-0.80;95.30
43697;DHT22;29301;47.620;19.560;2022-12-29T02:16:06;-0.70;95.60
43697;DHT22;29301;47.620;19.560;2022-12-29T02:32:45;-0.70;94.80
43697;DHT22;29301;47.620;19.560;2022-12-29T02:35:37;-0.70;95.00
43697;DHT22;29301;47.620;19.560;2022-12-29T02:43:39;-0.80;95.40
43697;DHT22;29301;47.620;19.560;2022-12-29T02:46:35;-0.80;95.60
43697;DHT22;29301;47.620;19.560;2022-12-29T02:52:00;-0.70;95.60
43697;DHT22;29301;47.620;19.560;2022-12-29T02:54:27;-0.60;95.70
43697;DHT22;29301;47.620;19.560;2022-12-29T02:57:28;-0.60;95.70
43697;DHT22;29301;47.620;19.560;2022-12-29T03:00:11;-0.60;95.60
43697;DHT22;29301;47.620;19.560;2022-12-29T03:05:41;-0.70;95.80
43697;DHT22;29301;47.620;19.560;2022-12-29T03:10:58;-0.70;95.90
43697;DHT22;29301;47.620;19.560;2022-12-29T03:13:52;-0.70;95.90
43697;DHT22;29301;47.620;19.560;2022-12-29T03:19:30;-0.80;96.30
43697;DHT22;29301;47.620;19.560;2022-12-29T03:22:04;-0.80;96.60
43697;DHT22;29301;47.620;19.560;2022-12-29T03:24:52;-0.70;96.70
43697;DHT22;29301;47.620;19.560;2022-12-29T03:27:23;-0.90;96.20
43697;DHT22;29301;47.620;19.560;2022-12-29T03:29:53;-1.10;96.70
43697;DHT22;29301;47.620;19.560;2022-12-29T03:32:22;-1.20;97.60
43697;DHT22;29301;47.620;19.560;2022-12-29T03:34:50;-1.30;98.00
43697;DHT22;29301;47.620;19.560;2022-12-29T03:37:20;-1.40;98.60
43697;DHT22;29301;47.620;19.560;2022-12-29T03:39:47;-1.40;99.60
43697;DHT22;29301;47.620;19.560;2022-12-29T03:42:17;-1.40;99.90
43697;DHT22;29301;47.620;19.560;2022-12-29T03:44:44;-1.30;99.90
43697;DHT22;29301;47.620;19.560;2022-12-29T03:47:11;-1.30;99.90
43697;DHT22;29301;47.620;19.560;2022-12-29T03:49:38;-1.20;99.90
43697;DHT22;29301;47.620;19.560;2022-12-29T03:52:04;-1.20;99.90
43697;DHT22;29301;47.620;19.560;2022-12-29T03:54:30;-1.30;99.90
43697;DHT22;29301;47.620;19.560;2022-12-29T03:56:56;-1.40;99.90
43697;DHT22;29301;47.620;19.560;2022-12-29T03:59:22;-1.40;99.90
43697;DHT22;29301;47.620;19.560;2022-12-29T04:01:47;-1.30;99.90
43697;DHT22;29301;47.620;19.560;2022-12-29T04:04:13;-1.20;99.90
43697;DHT22;29301;47.620;19.560;2022-12-29T04:06:39;-1.00;99.90
43697;DHT22;29301;47.620;19.560;2022-12-29T04:09:05;-1.10;99.90
43697;DHT22;29301;47.620;19.560;2022-12-29T04:11:31;-1.10;99.90
43697;DHT22;29301;47.620;19.560;2022-12-29T04:13:56;-1.20;99.90
43697;DHT22;29301;47.620;19.560;2022-12-29T04:16:22;-1.10;99.90
43697;DHT22;29301;47.620;19.560;2022-12-29T04:18:48;-1.00;99.90
43697;DHT22;29301;47.620;19.560;2022-12-29T04:21:13;-0.90;99.90
43697;DHT22;29301;47.620;19.560;2022-12-29T04:23:39;-0.80;99.90
43697;DHT22;29301;47.620;19.560;2022-12-29T04:26:05;-0.80;99.90
43697;DHT22;29301;47.620;19.560;2022-12-29T04:28:33;-0.70;99.90
43697;DHT22;29301;47.620;19.560;2022-12-29T04:30:59;-0.70;99.90
43697;DHT22;29301;47.620;19.560;2022-12-29T04:33:25;-0.60;99.90
43697;DHT22;29301;47.620;19.560;2022-12-29T04:35:51;-0.60;99.90
43697;DHT22;29301;47.620;19.560;2022-12-29T04:38:19;-0.60;99.90
43697;DHT22;29301;47.620;19.560;2022-12-29T04:40:45;-0.60;99.90
43697;DHT22;29301;47.620;19.560;2022-12-29T04:43:12;-0.60;99.90
43697;DHT22;29301;47.620;19.560;2022-12-29T04:45:39;-0.70;99.90
43697;DHT22;29301;47.620;19.560;2022-12-29T04:48:07;-0.80;99.90
43697;DHT22;29301;47.620;19.560;2022-12-29T04:50:33;-0.80;99.90
43697;DHT22;29301;47.620;19.560;2022-12-29T04:52:59;-1.10;99.90
43697;DHT22;29301;47.620;19.560;2022-12-29T04:55:25;-1.30;99.90
43697;DHT22;29301;47.620;19.560;2022-12-29T04:57:50;-1.50;99.90
43697;DHT22;29301;47.620;19.560;2022-12-29T05:00:16;-1.50;99.90
43697;DHT22;29301;47.620;19.560;2022-12-29T05:02:42;-1.40;99.90
43697;DHT22;29301;47.620;19.560;2022-12-29T05:05:08;-1.20;99.90
43697;DHT22;29301;47.620;19.560;2022-12-29T05:07:33;-1.10;99.90
43697;DHT22;29301;47.620;19.560;2022-12-29T05:09:59;-1.00;99.90
43697;DHT22;29301;47.620;19.560;2022-12-29T05:12:25;-0.90;99.90
43697;DHT22;29301;47.620;19.560;2022-12-29T05:14:51;-0.80;99.90
43697;DHT22;29301;47.620;19.560;2022-12-29T05:17:16;-0.70;99.90
43697;DHT22;29301;47.620;19.560;2022-12-29T05:19:42;-0.70;99.90
43697;DHT22;29301;47.620;19.560;2022-12-29T05:22:08;-0.70;99.90
43697;DHT22;29301;47.620;19.560;2022-12-29T05:24:33;-0.80;99.90
43697;DHT22;29301;47.620;19.560;2022-12-29T05:26:59;-0.80;99.90
43697;DHT22;29301;47.620;19.560;2022-12-29T05:29:25;-0.80;99.90
43697;DHT22;29301;47.620;19.560;2022-12-29T05:31:50;-0.70;99.90
43697;DHT22;29301;47.620;19.560;2022-12-29T05:34:16;-0.60;99.90
43697;DHT22;29301;47.620;19.560;2022-12-29T05:36:41;-0.60;99.90
43697;DHT22;29301;47.620;19.560;2022-12-29T05:39:07;-0.50;99.90
43697;DHT22;29301;47.620;19.560;2022-12-29T05:41:33;-0.60;99.90
43697;DHT22;29301;47.620;19.560;2022-12-29T05:44:00;-0.90;99.90
43697;DHT22;29301;47.620;19.560;2022-12-29T05:46:25;-1.10;99.90
43697;DHT22;29301;47.620;19.560;2022-12-29T05:48:51;-1.20;99.90
43697;DHT22;29301;47.620;19.560;2022-12-29T05:51:17;-1.00;99.90
43697;DHT22;29301;47.620;19.560;2022-12-29T05:53:42;-0.90;99.90
43697;DHT22;29301;47.620;19.560;2022-12-29T05:56:08;-0.80;99.90
43697;DHT22;29301;47.620;19.560;2022-12-29T05:58:34;-0.80;99.90
43697;DHT22;29301;47.620;19.560;2022-12-29T06:00:59;-0.70;99.90
43697;DHT22;29301;47.620;19.560;2022-12-29T06:03:25;-0.60;99.90
43697;DHT22;29301;47.620;19.560;2022-12-29T06:05:51;-0.60;99.90
43697;DHT22;29301;47.620;19.560;2022-12-29T06:08:17;-0.60;99.90
43697;DHT22;29301;47.620;19.560;2022-12-29T06:10:42;-0.50;99.90
43697;DHT22;29301;47.620;19.560;2022-12-29T06:13:08;-0.50;99.90
43697;DHT22;29301;47.620;19.560;2022-12-29T06:15:35;-0.60;99.90
43697;DHT22;29301;47.620;19.560;2022-12-29T06:18:01;-0.70;99.90
43697;DHT22;29301;47.620;19.560;2022-12-29T06:20:26;-0.60;99.90
43697;DHT22;29301;47.620;19.560;2022-12-29T06:22:52;-0.60;99.90
43697;DHT22;29301;47.620;19.560;2022-12-29T06:25:18;-0.70;99.90
43697;DHT22;29301;47.620;19.560;2022-12-29T06:27:43;-0.60;99.90
43697;DHT22;29301;47.620;19.560;2022-12-29T06:30:10;-0.60;99.90
43697;DHT22;29301;47.620;19.560;2022-12-29T06:32:36;-0.60;99.90
43697;DHT22;29301;47.620;19.560;2022-12-29T06:35:03;-0.60;99.90
43697;DHT22;29301;47.620;19.560;2022-12-29T06:37:29;-0.60;99.90
43697;DHT22;29301;47.620;19.560;2022-12-29T06:39:55;-0.90;99.90
43697;DHT22;29301;47.620;19.560;2022-12-29T06:42:21;-1.00;99.90
43697;DHT22;29301;47.620;19.560;2022-12-29T06:44:46;-0.90;99.90
43697;DHT22;29301;47.620;19.560;2022-12-29T06:47:12;-0.90;99.90
43697;DHT22;29301;47.620;19.560;2022-12-29T06:49:38;-1.00;99.90
43697;DHT22;29301;47.620;19.560;2022-12-29T06:52:04;-1.30;99.90
43697;DHT22;29301;47.620;19.560;2022-12-29T06:54:33;-1.40;99.90
43697;DHT22;29301;47.620;19.560;2022-12-29T06:57:00;-1.40;99.90
43697;DHT22;29301;47.620;19.560;2022-12-29T06:59:25;-1.40;99.90
43697;DHT22;29301;47.620;19.560;2022-12-29T07:01:52;-1.30;99.90
43697;DHT22;29301;47.620;19.560;2022-12-29T07:04:17;-1.20;99.90
43697;DHT22;29301;47.620;19.560;2022-12-29T07:06:43;-1.00;99.90
43697;DHT22;29301;47.620;19.560;2022-12-29T07:09:09;-0.90;99.90
43697;DHT22;29301;47.620;19.560;2022-12-29T07:11:35;-0.80;99.90
43697;DHT22;29301;47.620;19.560;2022-12-29T07:14:01;-0.80;99.90
43697;DHT22;29301;47.620;19.560;2022-12-29T07:16:27;-0.70;99.90
43697;DHT22;29301;47.620;19.560;2022-12-29T07:18:55;-0.60;99.90
43697;DHT22;29301;47.620;19.560;2022-12-29T07:21:20;-0.40;99.90
43697;DHT22;29301;47.620;19.560;2022-12-29T07:23:46;0.20;99.90
43697;DHT22;29301;47.620;19.560;2022-12-29T07:26:14;0.20;99.90
43697;DHT22;29301;47.620;19.560;2022-12-29T07:28:40;0.10;99.90
43697;DHT22;29301;47.620;19.560;2022-12-29T07:31:16;0.00;99.90
43697;DHT22;29301;47.620;19.560;2022-12-29T07:33:43;0.00;99.90
43697;DHT22;29301;47.620;19.560;2022-12-29T07:36:10;-0.10;99.90
43697;DHT22;29301;47.620;19.560;2022-12-29T07:38:35;0.00;99.90
43697;DHT22;29301;47.620;19.560;2022-12-29T07:41:01;0.00;99.90
43697;DHT22;29301;47.620;19.560;2022-12-29T07:43:27;0.00;99.90
43697;DHT22;29301;47.620;19.560;2022-12-29T07:45:53;0.00;99.90
43697;DHT22;29301;47.620;19.560;2022-12-29T07:48:19;0.00;99.90
43697;DHT22;29301;47.620;19.560;2022-12-29T07:50:44;0.00;99.90
43697;DHT22;29301;47.620;19.560;2022-12-29T07:53:10;-0.20;99.90
43697;DHT22;29301;47.620;19.560;2022-12-29T07:55:36;-0.20;99.90
43697;DHT22;29301;47.620;19.560;2022-12-29T07:58:02;-0.20;99.90
43697;DHT22;29301;47.620;19.560;2022-12-29T08:00:28;-0.10;99.90
43697;DHT22;29301;47.620;19.560;2022-12-29T08:02:53;-0.10;99.90
43697;DHT22;29301;47.620;19.560;2022-12-29T08:05:19;0.00;99.90
43697;DHT22;29301;47.620;19.560;2022-12-29T08:07:46;0.10;99.90
43697;DHT22;29301;47.620;19.560;2022-12-29T08:10:13;0.20;99.90
43697;DHT22;29301;47.620;19.560;2022-12-29T08:12:39;0.30;99.90
43697;DHT22;29301;47.620;19.560;2022-12-29T08:15:06;0.30;99.90
43697;DHT22;29301;47.620;19.560;2022-12-29T08:17:32;0.50;99.90
43697;DHT22;29301;47.620;19.560;2022-12-29T08:19:58;0.70;99.90
43697;DHT22;29301;47.620;19.560;2022-12-29T08:22:24;0.90;99.90
43697;DHT22;29301;47.620;19.560;2022-12-29T08:24:50;1.00;99.90
43697;DHT22;29301;47.620;19.560;2022-12-29T08:27:15;1.10;99.90
43697;DHT22;29301;47.620;19.560;2022-12-29T08:29:41;1.30;99.90
43697;DHT22;29301;47.620;19.560;2022-12-29T08:32:07;1.30;99.90
43697;DHT22;29301;47.620;19.560;2022-12-29T08:34:33;1.30;99.90
43697;DHT22;29301;47.620;19.560;2022-12-29T08:36:58;1.20;99.90
43697;DHT22;29301;47.620;19.560;2022-12-29T08:39:24;1.40;99.90
43697;DHT22;29301;47.620;19.560;2022-12-29T08:41:50;1.40;99.90
43697;DHT22;29301;47.620;19.560;2022-12-29T08:44:16;1.50;99.90
43697;DHT22;29301;47.620;19.560;2022-12-29T08:46:41;1.50;99.90
43697;DHT22;29301;47.620;19.560;2022-12-29T08:49:07;1.40;99.70
43697;DHT22;29301;47.620;19.560;2022-12-29T08:51:33;1.30;99.30
43697;DHT22;29301;47.620;19.560;2022-12-29T08:53:59;1.20;99.20
43697;DHT22;29301;47.620;19.560;2022-12-29T08:56:25;1.10;99.60
43697;DHT22;29301;47.620;19.560;2022-12-29T08:58:52;1.00;99.90
43697;DHT22;29301;47.620;19.560;2022-12-29T09:01:18;1.10;99.90
43697;DHT22;29301;47.620;19.560;2022-12-29T09:03:44;2.00;99.90
43697;DHT22;29301;47.620;19.560;2022-12-29T09:06:10;2.40;99.90
43697;DHT22;29301;47.620;19.560;2022-12-29T09:08:36;2.70;99.90
43697;DHT22;29301;47.620;19.560;2022-12-29T09:11:20;3.00;99.90
43697;DHT22;29301;47.620;19.560;2022-12-29T09:13:47;2.40;99.90
43697;DHT22;29301;47.620;19.560;2022-12-29T09:16:13;1.90;99.90
43697;DHT22;29301;47.620;19.560;2022-12-29T09:18:39;1.90;99.90
43697;DHT22;29301;47.620;19.560;2022-12-29T09:21:06;2.20;99.90
43697;DHT22;29301;47.620;19.560;2022-12-29T09:23:33;2.70;99.90
43697;DHT22;29301;47.620;19.560;2022-12-29T09:25:59;2.70;99.90
43697;DHT22;29301;47.620;19.560;2022-12-29T09:28:25;2.70;99.90
43697;DHT22;29301;47.620;19.560;2022-12-29T09:30:51;2.80;99.90
43697;DHT22;29301;47.620;19.560;2022-12-29T09:33:17;2.60;99.90
43697;DHT22;29301;47.620;19.560;2022-12-29T09:35:44;3.10;99.90
43697;DHT22;29301;47.620;19.560;2022-12-29T09:38:09;3.10;99.90
43697;DHT22;29301;47.620;19.560;2022-12-29T09:40:35;3.30;99.90
43697;DHT22;29301;47.620;19.560;2022-12-29T09:45:40;3.50;99.90
43697;DHT22;29301;47.620;19.560;2022-12-29T09:48:14;3.70;99.90
43697;DHT22;29301;47.620;19.560;2022-12-29T09:50:44;3.90;99.90
43697;DHT22;29301;47.620;19.560;2022-12-29T09:55:49;3.50;96.70
43697;DHT22;29301;47.620;19.560;2022-12-29T10:03:54;2.90;99.90
43697;DHT22;29301;47.620;19.560;2022-12-29T10:06:40;2.90;99.90
43697;DHT22;29301;47.620;19.560;2022-12-29T10:09:12;2.90;99.90
43697;DHT22;29301;47.620;19.560;2022-12-29T10:25:18;2.10;97.50
43697;DHT22;29301;47.620;19.560;2022-12-29T10:27:47;1.70;98.10
43697;DHT22;29301;47.620;19.560;2022-12-29T10:30:14;1.50;99.60
43697;DHT22;29301;47.620;19.560;2022-12-29T10:32:51;1.40;99.90
43697;DHT22;29301;47.620;19.560;2022-12-29T10:35:25;1.30;99.90
43697;DHT22;29301;47.620;19.560;2022-12-29T10:38:00;1.20;99.90
43697;DHT22;29301;47.620;19.560;2022-12-29T10:40:28;1.20;99.90
43697;DHT22;29301;47.620;19.560;2022-12-29T10:42:58;1.20;99.90
43697;DHT22;29301;47.620;19.560;2022-12-29T10:45:28;1.20;99.90
43697;DHT22;29301;47.620;19.560;2022-12-29T10:50:26;1.20;99.90
43697;DHT22;29301;47.620;19.560;2022-12-29T10:52:54;1.10;99.90
43697;DHT22;29301;47.620;19.560;2022-12-29T10:55:41;1.10;99.90
43697;DHT22;29301;47.620;19.560;2022-12-29T10:58:12;1.10;99.90
43697;DHT22;29301;47.620;19.560;2022-12-29T11:00:39;1.20;99.90
43697;DHT22;29301;47.620;19.560;2022-12-29T11:03:18;1.20;99.90
43697;DHT22;29301;47.620;19.560;2022-12-29T11:05:57;1.20;99.90
43697;DHT22;29301;47.620;19.560;2022-12-29T11:08:29;1.20;99.90
43697;DHT22;29301;47.620;19.560;2022-12-29T11:11:02;1.10;99.90
43697;DHT22;29301;47.620;19.560;2022-12-29T11:13:32;1.10;99.90
43697;DHT22;29301;47.620;19.560;2022-12-29T11:15:58;1.00;99.90
43697;DHT22;29301;47.620;19.560;2022-12-29T11:18:38;1.30;99.90
43697;DHT22;29301;47.620;19.560;2022-12-29T11:21:40;1.40;99.90
43697;DHT22;29301;47.620;19.560;2022-12-29T11:24:29;1.40;99.90
43697;DHT22;29301;47.620;19.560;2022-12-29T11:27:15;1.30;99.90
43697;DHT22;29301;47.620;19.560;2022-12-29T11:29:42;1.40;99.90
43697;DHT22;29301;47.620;19.560;2022-12-29T11:32:28;1.40;99.90
43697;DHT22;29301;47.620;19.560;2022-12-29T11:34:56;1.40;99.90
43697;DHT22;29301;47.620;19.560;2022-12-29T11:37:30;1.40;99.90
43697;DHT22;29301;47.620;19.560;2022-12-29T11:42:40;1.40;99.90
43697;DHT22;29301;47.620;19.560;2022-12-29T11:45:15;1.40;99.90
43697;DHT22;29301;47.620;19.560;2022-12-29T11:47:44;1.40;99.90
43697;DHT22;29301;47.620;19.560;2022-12-29T11:50:20;1.50;99.90
43697;DHT22;29301;47.620;19.560;2022-12-29T11:52:49;1.40;99.90
43697;DHT22;29301;47.620;19.560;2022-12-29T11:55:21;1.40;99.90
43697;DHT22;29301;47.620;19.560;2022-12-29T11:57:51;1.40;99.90
43697;DHT22;29301;47.620;19.560;2022-12-29T12:00:20;1.50;99.90
43697;DHT22;29301;47.620;19.560;2022-12-29T12:05:52;2.00;99.90
43697;DHT22;29301;47.620;19.560;2022-12-29T12:11:18;2.30;99.90
43697;DHT22;29301;47.620;19.560;2022-12-29T12:14:02;2.00;99.90
43697;DHT22;29301;47.620;19.560;2022-12-29T12:16:43;1.90;99.90
43697;DHT22;29301;47.620;19.560;2022-12-29T12:21:56;1.70;99.90
43697;DHT22;29301;47.620;19.560;2022-12-29T12:33:02;1.70;99.90
43697;DHT22;29301;47.620;19.560;2022-12-29T12:35:03;1.80;99.90
43697;DHT22;29301;47.620;19.560;2022-12-29T12:43:22;1.80;99.90
43697;DHT22;29301;47.620;19.560;2022-12-29T12:46:23;1.80;99.90
43697;DHT22;29301;47.620;19.560;2022-12-29T12:55:06;1.90;99.90
43697;DHT22;29301;47.620;19.560;2022-12-29T13:03:40;1.90;99.90
43697;DHT22;29301;47.620;19.560;2022-12-29T13:14:32;1.80;99.90
43697;DHT22;29301;47.620;19.560;2022-12-29T13:19:49;1.80;99.90
43697;DHT22;29301;47.620;19.560;2022-12-29T13:22:34;1.90;99.90
43697;DHT22;29301;47.620;19.560;2022-12-29T13:25:08;1.90;99.90
43697;DHT22;29301;47.620;19.560;2022-12-29T13:30:38;1.90;99.90
43697;DHT22;29301;47.620;19.560;2022-12-29T13:38:47;2.00;99.90
43697;DHT22;29301;47.620;19.560;2022-12-29T13:41:33;2.00;99.90
43697;DHT22;29301;47.620;19.560;2022-12-29T13:44:02;1.90;99.90
43697;DHT22;29301;47.620;19.560;2022-12-29T13:46:33;1.90;99.90
43697;DHT22;29301;47.620;19.560;2022-12-29T13:49:08;1.90;99.90
43697;DHT22;29301;47.620;19.560;2022-12-29T13:51:40;1.80;99.90
43697;DHT22;29301;47.620;19.560;2022-12-29T13:54:30;1.70;99.90
43697;DHT22;29301;47.620;19.560;2022-12-29T13:57:43;1.80;99.90
43697;DHT22;29301;47.620;19.560;2022-12-29T14:00:14;1.90;99.90
43697;DHT22;29301;47.620;19.560;2022-12-29T14:03:40;1.80;99.90
43697;DHT22;29301;47.620;19.560;2022-12-29T14:05:33;1.80;99.90
43697;DHT22;29301;47.620;19.560;2022-12-29T14:08:01;1.80;99.90
43697;DHT22;29301;47.620;19.560;2022-12-29T14:10:33;1.80;99.90
43697;DHT22;29301;47.620;19.560;2022-12-29T14:13:15;1.80;99.90
43697;DHT22;29301;47.620;19.560;2022-12-29T14:15:50;1.70;99.90
43697;DHT22;29301;47.620;19.560;2022-12-29T14:18:19;1.80;99.90
43697;DHT22;29301;47.620;19.560;2022-12-29T14:23:40;1.90;99.90
43697;DHT22;29301;47.620;19.560;2022-12-29T14:28:39;1.90;99.90
43697;DHT22;29301;47.620;19.560;2022-12-29T14:33:41;2.00;99.90
43697;DHT22;29301;47.620;19.560;2022-12-29T14:36:33;2.00;99.90
43697;DHT22;29301;47.620;19.560;2022-12-29T14:38:59;2.00;99.90
43697;DHT22;29301;47.620;19.560;2022-12-29T14:41:37;2.00;99.90
43697;DHT22;29301;47.620;19.560;2022-12-29T14:49:21;2.10;99.90
43697;DHT22;29301;47.620;19.560;2022-12-29T14:51:51;2.00;99.90
43697;DHT22;29301;47.620;19.560;2022-12-29T14:54:43;1.70;99.90
43697;DHT22;29301;47.620;19.560;2022-12-29T14:59:46;1.50;99.90
43697;DHT22;29301;47.620;19.560;2022-12-29T15:02:19;1.60;99.90
43697;DHT22;29301;47.620;19.560;2022-12-29T15:04:46;1.60;99.90
43697;DHT22;29301;47.620;19.560;2022-12-29T15:07:12;1.60;99.90
43697;DHT22;29301;47.620;19.560;2022-12-29T15:09:47;1.70;99.90
43697;DHT22;29301;47.620;19.560;2022-12-29T15:12:27;1.70;99.90
43697;DHT22;29301;47.620;19.560;2022-12-29T15:14:59;1.70;99.90
43697;DHT22;29301;47.620;19.560;2022-12-29T15:17:29;1.60;99.90
43697;DHT22;29301;47.620;19.560;2022-12-29T15:19:57;1.60;99.90
43697;DHT22;29301;47.620;19.560;2022-12-29T15:22:23;1.60;99.90
43697;DHT22;29301;47.620;19.560;2022-12-29T15:24:54;1.50;99.90
43697;DHT22;29301;47.620;19.560;2022-12-29T15:27:23;1.50;99.90
43697;DHT22;29301;47.620;19.560;2022-12-29T15:30:00;1.50;99.90
43697;DHT22;29301;47.620;19.560;2022-12-29T15:32:40;1.40;99.90
43697;DHT22;29301;47.620;19.560;2022-12-29T15:37:48;0.90;99.90
43697;DHT22;29301;47.620;19.560;2022-12-29T15:40:29;0.80;99.90
43697;DHT22;29301;47.620;19.560;2022-12-29T15:45:20;0.80;99.90
43697;DHT22;29301;47.620;19.560;2022-12-29T15:47:55;1.00;99.90
43697;DHT22;29301;47.620;19.560;2022-12-29T15:50:32;1.10;99.90
43697;DHT22;29301;47.620;19.560;2022-12-29T15:52:59;1.10;99.90
43697;DHT22;29301;47.620;19.560;2022-12-29T15:55:33;1.00;99.90
43697;DHT22;29301;47.620;19.560;2022-12-29T15:58:02;1.00;99.90
43697;DHT22;29301;47.620;19.560;2022-12-29T16:00:33;1.00;99.90
43697;DHT22;29301;47.620;19.560;2022-12-29T16:03:01;1.10;99.90
43697;DHT22;29301;47.620;19.560;2022-12-29T16:05:35;1.20;99.90
43697;DHT22;29301;47.620;19.560;2022-12-29T16:08:02;1.20;99.90
43697;DHT22;29301;47.620;19.560;2022-12-29T16:10:40;1.20;99.90
43697;DHT22;29301;47.620;19.560;2022-12-29T16:15:39;1.20;99.90
43697;DHT22;29301;47.620;19.560;2022-12-29T16:18:05;1.00;99.90
43697;DHT22;29301;47.620;19.560;2022-12-29T16:20:41;1.00;99.90
43697;DHT22;29301;47.620;19.560;2022-12-29T16:23:16;1.00;99.90
43697;DHT22;29301;47.620;19.560;2022-12-29T16:25:43;0.90;99.90
43697;DHT22;29301;47.620;19.560;2022-12-29T16:28:27;0.70;99.90
43697;DHT22;29301;47.620;19.560;2022-12-29T16:31:05;0.70;99.90
43697;DHT22;29301;47.620;19.560;2022-12-29T16:34:19;0.80;99.90
43697;DHT22;29301;47.620;19.560;2022-12-29T16:37:01;0.90;99.90
43697;DHT22;29301;47.620;19.560;2022-12-29T16:39:36;0.70;99.90
43697;DHT22;29301;47.620;19.560;2022-12-29T16:50:31;0.80;99.90
43697;DHT22;29301;47.620;19.560;2022-12-29T16:52:58;0.80;99.90
43697;DHT22;29301;47.620;19.560;2022-12-29T16:55:24;0.80;99.90
43697;DHT22;29301;47.620;19.560;2022-12-29T16:57:52;0.90;99.90
43697;DHT22;29301;47.620;19.560;2022-12-29T17:00:23;0.70;99.90
43697;DHT22;29301;47.620;19.560;2022-12-29T17:02:54;0.70;99.90
43697;DHT22;29301;47.620;19.560;2022-12-29T17:05:20;0.80;99.90
43697;DHT22;29301;47.620;19.560;2022-12-29T17:07:46;0.80;99.90
43697;DHT22;29301;47.620;19.560;2022-12-29T17:10:13;0.80;99.90
43697;DHT22;29301;47.620;19.560;2022-12-29T17:12:41;0.80;99.90
43697;DHT22;29301;47.620;19.560;2022-12-29T17:15:25;0.80;99.90
43697;DHT22;29301;47.620;19.560;2022-12-29T17:17:54;0.70;99.90
43697;DHT22;29301;47.620;19.560;2022-12-29T17:20:28;0.80;99.90
43697;DHT22;29301;47.620;19.560;2022-12-29T17:22:55;0.80;99.90
43697;DHT22;29301;47.620;19.560;2022-12-29T17:28:04;0.80;99.90
43697;DHT22;29301;47.620;19.560;2022-12-29T17:30:33;0.50;99.90
43697;DHT22;29301;47.620;19.560;2022-12-29T17:33:03;0.40;99.90
43697;DHT22;29301;47.620;19.560;2022-12-29T17:35:29;0.20;99.90
43697;DHT22;29301;47.620;19.560;2022-12-29T17:38:21;0.20;99.90
43697;DHT22;29301;47.620;19.560;2022-12-29T17:40:48;0.30;99.90
43697;DHT22;29301;47.620;19.560;2022-12-29T17:43:14;0.40;99.90
43697;DHT22;29301;47.620;19.560;2022-12-29T17:45:41;0.40;99.90
43697;DHT22;29301;47.620;19.560;2022-12-29T17:48:15;0.30;99.90
43697;DHT22;29301;47.620;19.560;2022-12-29T17:50:42;0.30;99.90
43697;DHT22;29301;47.620;19.560;2022-12-29T17:53:19;0.40;99.90
43697;DHT22;29301;47.620;19.560;2022-12-29T17:55:46;0.40;99.90
43697;DHT22;29301;47.620;19.560;2022-12-29T17:58:20;0.30;99.90
43697;DHT22;29301;47.620;19.560;2022-12-29T18:00:47;0.40;99.90
43697;DHT22;29301;47.620;19.560;2022-12-29T18:03:19;0.50;99.90
43697;DHT22;29301;47.620;19.560;2022-12-29T18:05:46;0.50;99.90
43697;DHT22;29301;47.620;19.560;2022-12-29T18:08:12;0.50;99.90
43697;DHT22;29301;47.620;19.560;2022-12-29T18:10:38;0.30;99.90
43697;DHT22;29301;47.620;19.560;2022-12-29T18:13:04;0.20;99.90
43697;DHT22;29301;47.620;19.560;2022-12-29T18:15:34;0.20;99.90
43697;DHT22;29301;47.620;19.560;2022-12-29T18:18:29;0.30;99.90